createdAt,value
2023-02-17T00:00:59.980Z,53.42
2023-02-17T00:03:27.188Z,50.92
2023-02-17T00:05:54.307Z,54.63
2023-02-17T00:08:21.496Z,50.97
2023-02-17T00:11:00.132Z,51.20
2023-02-17T00:13:27.655Z,48.75
2023-02-17T00:15:55.233Z,44.42
2023-02-17T00:18:23.300Z,39.85
2023-02-17T00:20:50.953Z,47.38
2023-02-17T00:23:18.171Z,36.33
2023-02-17T00:25:45.363Z,43.08
2023-02-17T00:28:12.516Z,41.03
2023-02-17T00:30:39.586Z,45.00
2023-02-17T00:33:07.100Z,44.13
2023-02-17T00:35:34.405Z,35.28
2023-02-17T00:38:02.350Z,36.70
2023-02-17T00:40:29.583Z,38.42
2023-02-17T00:42:56.720Z,49.80
2023-02-17T00:45:25.478Z,39.70
2023-02-17T00:47:52.744Z,41.22
2023-02-17T00:50:19.927Z,35.30
2023-02-17T00:52:47.008Z,36.20
2023-02-17T00:55:14.158Z,40.97
2023-02-17T00:57:41.548Z,37.17
2023-02-17T01:00:09.722Z,38.30
2023-02-17T01:02:36.927Z,37.45
2023-02-17T01:05:04.396Z,42.90
2023-02-17T01:07:31.551Z,31.83
2023-02-17T01:09:58.972Z,39.03
2023-02-17T01:12:26.020Z,38.63
2023-02-17T01:14:53.149Z,37.08
2023-02-17T01:17:20.311Z,38.65
2023-02-17T01:19:47.437Z,45.33
2023-02-17T01:22:16.470Z,37.13
2023-02-17T01:24:43.686Z,32.97
2023-02-17T01:27:10.953Z,42.33
2023-02-17T01:29:38.152Z,35.17
2023-02-17T01:32:05.547Z,43.95
2023-02-17T01:34:32.797Z,40.72
2023-02-17T01:36:59.998Z,42.22
2023-02-17T01:39:27.167Z,47.92
2023-02-17T01:41:54.393Z,46.40
2023-02-17T01:44:24.148Z,44.65
2023-02-17T01:46:53.945Z,43.00
2023-02-17T01:49:37.244Z,42.17
2023-02-17T01:52:12.832Z,42.38
2023-02-17T01:54:47.457Z,45.83
2023-02-17T01:57:18.895Z,37.72
2023-02-17T01:59:46.990Z,38.42
2023-02-17T02:02:15.545Z,45.90
2023-02-17T02:04:46.932Z,45.55
2023-02-17T02:07:25.228Z,44.50
2023-02-17T02:09:56.262Z,42.67
2023-02-17T02:12:27.728Z,46.13
2023-02-17T02:15:10.878Z,45.90
2023-02-17T02:18:06.409Z,44.80
2023-02-17T02:21:13.231Z,39.03
2023-02-17T02:23:52.518Z,44.63
2023-02-17T02:26:41.610Z,46.15
2023-02-17T02:29:20.294Z,50.58
2023-02-17T02:32:19.998Z,52.95
2023-02-17T02:35:38.263Z,49.47
2023-02-17T02:38:22.451Z,50.38
2023-02-17T02:40:57.452Z,44.20
2023-02-17T02:43:26.496Z,45.78
2023-02-17T02:46:12.518Z,43.10
2023-02-17T02:48:40.823Z,45.85
2023-02-17T02:51:13.827Z,40.35
2023-02-17T02:53:53.291Z,35.70
2023-02-17T02:56:48.207Z,45.72
2023-02-17T02:59:34.328Z,45.88
2023-02-17T03:02:24.937Z,47.45
2023-02-17T03:05:10.548Z,43.60
2023-02-17T03:07:45.100Z,44.47
2023-02-17T03:10:14.542Z,46.92
2023-02-17T03:12:42.601Z,42.72
2023-02-17T03:15:18.963Z,40.72
2023-02-17T03:17:46.233Z,40.65
2023-02-17T03:20:14.271Z,40.03
2023-02-17T03:22:46.106Z,43.80
2023-02-17T03:25:15.863Z,42.63
2023-02-17T03:27:44.038Z,41.17
2023-02-17T03:30:12.857Z,40.33
2023-02-17T03:32:41.294Z,47.17
2023-02-17T03:35:09.621Z,43.80
2023-02-17T03:37:36.904Z,46.42
2023-02-17T03:40:05.107Z,45.38
2023-02-17T03:42:32.516Z,52.97
2023-02-17T03:44:59.717Z,45.15
2023-02-17T03:47:26.994Z,44.35
2023-02-17T03:49:54.280Z,48.35
2023-02-17T03:52:21.497Z,54.00
2023-02-17T03:54:48.665Z,45.22
2023-02-17T03:57:15.691Z,43.30
2023-02-17T03:59:42.807Z,48.20
2023-02-17T04:02:09.940Z,45.75
2023-02-17T04:04:37.838Z,41.40
2023-02-17T04:07:05.562Z,43.83
2023-02-17T04:09:32.747Z,45.38
2023-02-17T04:11:59.837Z,44.38
2023-02-17T04:14:27.174Z,40.30
2023-02-17T04:16:54.361Z,44.88
2023-02-17T04:19:21.626Z,45.92
2023-02-17T04:21:48.746Z,40.00
2023-02-17T04:24:15.993Z,41.70
2023-02-17T04:26:43.192Z,45.70
2023-02-17T04:29:10.294Z,47.25
2023-02-17T04:31:37.677Z,36.35
2023-02-17T04:34:05.150Z,41.08
2023-02-17T04:36:32.426Z,44.05
2023-02-17T04:38:59.474Z,49.33
2023-02-17T04:41:26.685Z,54.58
2023-02-17T04:43:53.947Z,54.47
2023-02-17T04:46:21.363Z,41.83
2023-02-17T04:48:48.537Z,49.33
2023-02-17T04:51:15.611Z,46.75
2023-02-17T04:53:42.842Z,45.63
2023-02-17T04:56:10.057Z,50.88
2023-02-17T04:58:37.265Z,61.17
2023-02-17T05:01:04.520Z,68.30
2023-02-17T05:03:31.851Z,60.28
2023-02-17T05:05:59.013Z,43.78
2023-02-17T05:08:26.259Z,42.60
2023-02-17T05:10:53.876Z,43.60
2023-02-17T05:13:21.158Z,43.58
2023-02-17T05:15:48.233Z,38.65
2023-02-17T05:18:15.720Z,41.47
2023-02-17T05:20:42.862Z,37.13
2023-02-17T05:23:10.302Z,42.78
2023-02-17T05:25:37.763Z,41.00
2023-02-17T05:28:04.991Z,43.38
2023-02-17T05:30:32.240Z,40.47
2023-02-17T05:32:59.481Z,37.88
2023-02-17T05:35:26.715Z,45.28
2023-02-17T05:37:54.146Z,39.45
2023-02-17T05:40:21.584Z,43.85
2023-02-17T05:42:48.760Z,46.65
2023-02-17T05:45:16.171Z,43.72
2023-02-17T05:47:43.362Z,42.40
2023-02-17T05:50:11.013Z,44.35
2023-02-17T05:52:38.120Z,42.35
2023-02-17T05:55:05.737Z,46.35
2023-02-17T05:57:33.385Z,40.97
2023-02-17T06:00:00.497Z,56.75
2023-02-17T06:02:27.922Z,107.47
2023-02-17T06:04:55.098Z,71.32
2023-02-17T06:07:22.308Z,77.30
2023-02-17T06:09:49.631Z,63.50
2023-02-17T06:12:16.988Z,66.47
2023-02-17T06:14:44.032Z,65.63
2023-02-17T06:17:11.424Z,74.90
2023-02-17T06:19:38.642Z,72.50
2023-02-17T06:22:05.892Z,52.88
2023-02-17T06:24:33.095Z,39.03
2023-02-17T06:27:01.246Z,46.63
2023-02-17T06:29:28.278Z,39.88
2023-02-17T06:31:55.709Z,40.92
2023-02-17T06:34:23.058Z,37.38
2023-02-17T06:36:50.225Z,41.90
2023-02-17T06:39:18.025Z,39.08
2023-02-17T06:41:45.709Z,49.25
2023-02-17T06:44:13.116Z,45.97
2023-02-17T06:46:40.318Z,47.95
2023-02-17T06:49:07.739Z,42.53
2023-02-17T06:51:34.924Z,44.75
2023-02-17T06:54:02.216Z,46.88
2023-02-17T06:56:29.599Z,46.72
2023-02-17T06:58:57.004Z,43.22
2023-02-17T07:01:26.416Z,112.50
2023-02-17T07:03:54.694Z,82.38
2023-02-17T07:06:23.564Z,40.42
2023-02-17T07:08:51.093Z,40.10
2023-02-17T07:11:18.552Z,38.95
2023-02-17T07:13:46.234Z,35.90
2023-02-17T07:16:15.242Z,39.22
2023-02-17T07:18:42.820Z,37.67
2023-02-17T07:21:11.339Z,40.25
2023-02-17T07:23:39.777Z,39.85
2023-02-17T07:26:09.636Z,39.92
2023-02-17T07:28:38.548Z,40.05
2023-02-17T07:31:11.413Z,34.28
2023-02-17T07:33:39.301Z,40.08
2023-02-17T07:36:11.846Z,68.55
2023-02-17T07:38:39.743Z,51.67
2023-02-17T07:41:13.507Z,32.05
2023-02-17T07:43:41.480Z,33.28
2023-02-17T07:46:10.584Z,41.92
2023-02-17T07:48:38.453Z,37.28
2023-02-17T07:51:12.064Z,35.00
2023-02-17T07:53:39.856Z,37.17
2023-02-17T07:56:10.035Z,36.30
2023-02-17T07:58:39.151Z,43.42
2023-02-17T08:01:10.727Z,35.80
2023-02-17T08:03:38.590Z,36.03
2023-02-17T08:06:10.857Z,31.75
2023-02-17T08:08:56.475Z,30.15
2023-02-17T08:11:44.006Z,29.08
2023-02-17T08:14:13.249Z,34.75
2023-02-17T08:16:40.980Z,33.25
2023-02-17T08:19:08.328Z,36.00
2023-02-17T08:21:35.847Z,27.25
2023-02-17T08:24:03.465Z,34.20
2023-02-17T08:26:30.958Z,33.83
2023-02-17T08:28:58.241Z,31.08
2023-02-17T08:31:28.424Z,29.70
2023-02-17T08:33:56.504Z,29.65
2023-02-17T08:36:24.942Z,25.90
2023-02-17T08:38:53.824Z,24.92
2023-02-17T08:41:30.323Z,29.73
2023-02-17T08:43:59.516Z,25.27
2023-02-17T08:46:27.997Z,25.80
2023-02-17T08:48:56.480Z,26.25
2023-02-17T08:51:26.314Z,25.70
2023-02-17T08:54:00.298Z,24.00
2023-02-17T08:56:28.495Z,24.13
2023-02-17T08:58:55.982Z,21.33
2023-02-17T09:01:24.230Z,29.50
2023-02-17T09:03:54.131Z,27.77
2023-02-17T09:06:22.295Z,23.65
2023-02-17T09:08:49.946Z,21.20
2023-02-17T09:11:19.881Z,21.60
2023-02-17T09:13:47.618Z,20.55
2023-02-17T09:16:15.170Z,26.63
2023-02-17T09:18:42.485Z,24.17
2023-02-17T09:21:12.363Z,23.45
2023-02-17T09:23:40.548Z,27.88
2023-02-17T09:26:10.930Z,20.98
2023-02-17T09:28:38.519Z,20.85
2023-02-17T09:31:10.505Z,22.83
2023-02-17T09:33:38.684Z,21.30
2023-02-17T09:36:11.027Z,21.20
2023-02-17T09:38:39.393Z,49.88
2023-02-17T09:41:15.571Z,23.40
2023-02-17T09:43:43.193Z,26.20
2023-02-17T09:46:16.144Z,17.33
2023-02-17T09:48:45.520Z,16.35
2023-02-17T09:51:21.914Z,21.50
2023-02-17T09:53:58.364Z,26.38
2023-02-17T09:56:33.686Z,31.55
2023-02-17T09:59:06.906Z,23.35
2023-02-17T10:01:35.930Z,21.27
2023-02-17T10:04:14.368Z,41.35
2023-02-17T10:06:44.908Z,21.48
2023-02-17T10:09:19.959Z,25.98
2023-02-17T10:12:09.856Z,15.60
2023-02-17T10:14:58.125Z,28.48
2023-02-17T10:17:30.333Z,17.88
2023-02-17T10:20:05.252Z,21.58
2023-02-17T10:22:33.858Z,24.42
2023-02-17T10:25:03.131Z,26.90
2023-02-17T10:27:56.170Z,25.88
2023-02-17T10:30:47.905Z,29.92
2023-02-17T10:33:45.146Z,29.55
2023-02-17T10:36:39.095Z,100.95
2023-02-17T10:41:48.325Z,23.00
2023-02-17T10:44:21.236Z,23.02
2023-02-17T10:46:49.921Z,21.50
2023-02-17T10:49:28.820Z,21.02
2023-02-17T10:52:01.905Z,22.65
2023-02-17T10:54:36.038Z,23.40
2023-02-17T10:57:08.214Z,22.52
2023-02-17T10:59:44.193Z,18.95
2023-02-17T11:02:19.883Z,23.40
2023-02-17T11:04:55.217Z,28.08
2023-02-17T11:07:37.999Z,26.13
2023-02-17T11:10:27.306Z,23.53
2023-02-17T11:12:59.133Z,22.75
2023-02-17T11:15:43.943Z,25.50
2023-02-17T11:18:20.619Z,23.85
2023-02-17T11:20:48.342Z,27.58
2023-02-17T11:23:15.697Z,31.15
2023-02-17T11:25:44.145Z,24.60
2023-02-17T11:28:24.202Z,19.80
2023-02-17T11:30:54.892Z,25.48
2023-02-17T11:33:38.054Z,23.25
2023-02-17T11:36:07.447Z,21.77
2023-02-17T11:38:43.791Z,23.88
2023-02-17T11:41:12.552Z,21.73
2023-02-17T11:43:50.700Z,21.50
2023-02-17T11:46:36.864Z,24.45
2023-02-17T11:49:21.150Z,20.20
2023-02-17T11:52:27.450Z,18.38
2023-02-17T11:55:13.951Z,22.98
2023-02-17T11:57:52.307Z,21.35
2023-02-17T12:00:31.300Z,18.13
2023-02-17T12:03:17.301Z,18.17
2023-02-17T12:06:37.076Z,18.70
2023-02-17T12:09:05.169Z,16.52
2023-02-17T12:11:59.529Z,12.77
2023-02-17T12:14:45.385Z,13.75
2023-02-17T12:17:35.965Z,11.35
2023-02-17T12:20:15.384Z,11.95
2023-02-17T12:23:09.675Z,12.65
2023-02-17T12:25:59.567Z,14.30
2023-02-17T12:28:58.128Z,13.20
2023-02-17T12:31:52.846Z,28.42
2023-02-17T12:34:30.891Z,17.17
2023-02-17T12:37:00.703Z,16.13
2023-02-17T12:39:40.102Z,12.98
2023-02-17T12:42:32.045Z,15.02
2023-02-17T12:45:30.877Z,12.80
2023-02-17T12:48:04.172Z,12.40
2023-02-17T12:50:55.420Z,11.48
2023-02-17T12:53:47.102Z,13.07
2023-02-17T12:56:38.804Z,15.60
2023-02-17T12:59:19.821Z,14.88
2023-02-17T13:01:55.518Z,28.35
2023-02-17T13:04:26.425Z,14.18
2023-02-17T13:07:15.806Z,14.50
2023-02-17T13:09:45.978Z,13.18
2023-02-17T13:12:22.179Z,12.93
2023-02-17T13:14:58.235Z,14.50
2023-02-17T13:17:30.276Z,14.70
2023-02-17T13:20:09.739Z,11.77
2023-02-17T13:22:38.859Z,16.65
2023-02-17T13:25:07.056Z,11.85
2023-02-17T13:27:40.166Z,15.55
2023-02-17T13:30:12.775Z,15.68
2023-02-17T13:32:39.958Z,16.02
2023-02-17T13:35:31.085Z,21.48
2023-02-17T13:37:58.233Z,18.92
2023-02-17T13:40:52.058Z,14.30
2023-02-17T13:43:20.441Z,12.57
2023-02-17T13:46:00.756Z,17.77
2023-02-17T13:48:29.393Z,13.05
2023-02-17T13:50:59.498Z,13.27
2023-02-17T13:53:41.399Z,13.52
2023-02-17T13:56:28.400Z,10.88
2023-02-17T13:59:08.002Z,13.35
2023-02-17T14:01:38.334Z,13.32
2023-02-17T14:04:22.485Z,15.68
2023-02-17T14:06:50.392Z,18.42
2023-02-17T14:09:31.016Z,16.65
2023-02-17T14:12:01.277Z,17.00
2023-02-17T14:14:34.900Z,14.60
2023-02-17T14:17:34.241Z,16.50
2023-02-17T14:20:01.657Z,12.75
2023-02-17T14:22:34.683Z,14.10
2023-02-17T14:25:06.754Z,14.75
2023-02-17T14:27:45.842Z,19.23
2023-02-17T14:30:34.627Z,17.48
2023-02-17T14:33:23.855Z,23.35
2023-02-17T14:35:55.500Z,19.33
2023-02-17T14:38:22.787Z,17.60
2023-02-17T14:40:50.032Z,17.83
2023-02-17T14:43:17.457Z,19.17
2023-02-17T14:45:45.249Z,13.35
2023-02-17T14:48:12.435Z,13.73
2023-02-17T14:50:42.532Z,17.00
2023-02-17T14:53:25.136Z,19.63
2023-02-17T14:56:07.321Z,19.33
2023-02-17T14:58:35.034Z,18.63
2023-02-17T15:01:02.404Z,19.70
2023-02-17T15:03:29.760Z,18.45
2023-02-17T15:05:57.292Z,24.30
2023-02-17T15:08:32.387Z,24.52
2023-02-17T15:11:00.412Z,31.40
2023-02-17T15:13:27.732Z,27.25
2023-02-17T15:15:55.086Z,24.70
2023-02-17T15:18:22.535Z,26.88
2023-02-17T15:20:51.952Z,26.73
2023-02-17T15:23:25.728Z,31.58
2023-02-17T15:25:54.856Z,27.15
2023-02-17T15:28:22.461Z,31.20
2023-02-17T15:30:53.923Z,34.15
2023-02-17T15:33:23.212Z,26.70
2023-02-17T15:35:55.889Z,30.02
2023-02-17T15:38:24.579Z,24.98
2023-02-17T15:40:51.939Z,23.50
2023-02-17T15:43:22.743Z,28.08
2023-02-17T15:45:50.142Z,23.77
2023-02-17T15:48:20.218Z,26.52
2023-02-17T15:50:47.582Z,24.92
2023-02-17T15:53:14.752Z,27.33
2023-02-17T15:55:42.628Z,32.08
2023-02-17T15:58:17.474Z,28.52
2023-02-17T16:00:50.528Z,31.20
2023-02-17T16:03:17.968Z,28.30
2023-02-17T16:05:45.109Z,35.20
2023-02-17T16:08:12.372Z,115.88
2023-02-17T16:10:42.570Z,39.58
2023-02-17T16:13:16.719Z,25.98
2023-02-17T16:15:45.180Z,21.42
2023-02-17T16:18:31.502Z,33.33
2023-02-17T16:20:58.698Z,26.25
2023-02-17T16:23:26.375Z,26.25
2023-02-17T16:25:53.565Z,28.50
2023-02-17T16:28:22.177Z,33.08
2023-02-17T16:30:50.111Z,34.47
2023-02-17T16:33:19.054Z,36.17
2023-02-17T16:35:46.277Z,36.85
2023-02-17T16:38:23.593Z,46.90
2023-02-17T16:40:52.700Z,50.95
2023-02-17T16:43:27.912Z,54.58
2023-02-17T16:46:02.875Z,52.55
2023-02-17T16:48:35.552Z,54.53
2023-02-17T16:51:02.751Z,50.10
2023-02-17T16:53:30.060Z,54.05
2023-02-17T16:55:57.511Z,48.95
2023-02-17T16:58:26.545Z,49.20
2023-02-17T17:00:55.977Z,41.53
2023-02-17T17:03:23.700Z,39.95
2023-02-17T17:05:54.224Z,38.33
2023-02-17T17:08:22.346Z,33.50
2023-02-17T17:10:49.911Z,30.05
2023-02-17T17:13:17.562Z,39.42
2023-02-17T17:15:46.317Z,28.52
2023-02-17T17:18:21.143Z,32.38
2023-02-17T17:20:49.212Z,26.58
2023-02-17T17:23:16.992Z,30.70
2023-02-17T17:25:47.106Z,70.13
2023-02-17T17:28:16.432Z,32.05
2023-02-17T17:30:43.555Z,59.83
2023-02-17T17:33:10.721Z,63.40
2023-02-17T17:35:38.006Z,33.70
2023-02-17T17:38:05.440Z,32.88
2023-02-17T17:40:48.704Z,31.98
2023-02-17T17:43:18.811Z,28.63
2023-02-17T17:45:47.444Z,38.00
2023-02-17T17:48:16.901Z,42.65
2023-02-17T17:50:44.807Z,45.33
2023-02-17T17:53:12.216Z,45.75
2023-02-17T17:55:39.584Z,56.95
2023-02-17T17:58:06.733Z,47.58
2023-02-17T18:00:35.845Z,49.85
2023-02-17T18:03:04.475Z,60.25
2023-02-17T18:05:31.898Z,50.63
2023-02-17T18:07:59.520Z,48.97
2023-02-17T18:10:26.760Z,53.67
2023-02-17T18:12:54.189Z,50.70
2023-02-17T18:15:23.534Z,43.15
2023-02-17T18:17:52.693Z,40.78
2023-02-17T18:20:20.220Z,34.65
2023-02-17T18:22:47.545Z,34.75
2023-02-17T18:25:14.728Z,38.10
2023-02-17T18:27:45.194Z,35.85
2023-02-17T18:30:15.977Z,38.95
2023-02-17T18:32:44.417Z,42.85
2023-02-17T18:35:12.368Z,32.90
2023-02-17T18:37:41.229Z,42.00
2023-02-17T18:40:12.732Z,33.72
2023-02-17T18:42:42.234Z,30.55
2023-02-17T18:45:09.848Z,73.18
2023-02-17T18:47:37.648Z,69.50
2023-02-17T18:50:07.576Z,129.23
2023-02-17T18:52:34.732Z,79.80
2023-02-17T18:55:02.097Z,45.25
2023-02-17T18:57:29.425Z,40.05
2023-02-17T18:59:56.629Z,66.88
2023-02-17T19:02:23.967Z,77.00
2023-02-17T19:04:53.509Z,47.55
2023-02-17T19:07:21.808Z,56.95
2023-02-17T19:09:51.876Z,38.45
2023-02-17T19:12:19.357Z,40.95
2023-02-17T19:14:48.082Z,35.13
2023-02-17T19:17:18.447Z,37.67
2023-02-17T19:19:45.795Z,36.42
2023-02-17T19:22:13.134Z,38.25
2023-02-17T19:24:41.529Z,60.72
2023-02-17T19:27:09.128Z,81.38
2023-02-17T19:29:36.387Z,66.35
2023-02-17T19:32:04.719Z,77.32
2023-02-17T19:34:32.514Z,63.95
2023-02-17T19:37:00.182Z,323.50
2023-02-17T19:39:27.360Z,247.45
2023-02-17T19:41:54.612Z,149.95
2023-02-17T19:44:21.760Z,164.95
2023-02-17T19:46:49.201Z,119.55
2023-02-17T19:49:16.465Z,64.05
2023-02-17T19:51:43.554Z,52.13
2023-02-17T19:54:10.784Z,78.90
2023-02-17T19:56:39.124Z,71.20
2023-02-17T19:59:06.257Z,82.45
2023-02-17T20:01:34.206Z,47.97
2023-02-17T20:04:04.632Z,58.92
2023-02-17T20:06:37.558Z,159.13
2023-02-17T20:09:07.703Z,326.35
2023-02-17T20:11:34.983Z,323.52
2023-02-17T20:14:03.301Z,219.55
2023-02-17T20:16:31.210Z,147.25
2023-02-17T20:19:01.230Z,163.85
2023-02-17T20:21:31.299Z,57.28
2023-02-17T20:23:59.033Z,59.17
2023-02-17T20:26:32.859Z,56.10
2023-02-17T20:29:01.787Z,94.53
2023-02-17T20:31:29.590Z,204.48
2023-02-17T20:33:57.145Z,247.20
2023-02-17T20:36:25.165Z,229.82
2023-02-17T20:38:52.459Z,222.55
2023-02-17T20:41:22.224Z,140.82
2023-02-17T20:43:50.558Z,106.57
2023-02-17T20:46:27.718Z,177.43
2023-02-17T20:48:55.559Z,138.07
2023-02-17T20:51:23.756Z,108.72
2023-02-17T20:53:51.325Z,108.03
2023-02-17T20:56:22.451Z,62.42
2023-02-17T20:58:50.901Z,103.90
2023-02-17T21:01:19.943Z,34.75
2023-02-17T21:03:47.226Z,40.47
2023-02-17T21:06:25.208Z,66.78
2023-02-17T21:08:55.730Z,65.75
2023-02-17T21:11:23.471Z,88.22
2023-02-17T21:13:51.102Z,85.50
2023-02-17T21:16:21.840Z,79.35
2023-02-17T21:18:49.300Z,89.25
2023-02-17T21:21:16.870Z,83.78
2023-02-17T21:23:44.523Z,67.03
2023-02-17T21:26:13.196Z,56.03
2023-02-17T21:28:40.907Z,56.78
2023-02-17T21:31:08.777Z,60.38
2023-02-17T21:33:41.828Z,53.60
2023-02-17T21:36:15.378Z,55.90
2023-02-17T21:38:42.550Z,41.25
2023-02-17T21:41:13.010Z,48.85
2023-02-17T21:43:58.579Z,50.47
2023-02-17T21:46:26.544Z,46.20
2023-02-17T21:48:55.022Z,56.17
2023-02-17T21:51:22.574Z,88.30
2023-02-17T21:53:49.914Z,304.35
2023-02-17T21:56:17.134Z,92.38
2023-02-17T21:58:48.520Z,70.07
2023-02-17T22:01:17.097Z,65.97
2023-02-17T22:03:44.372Z,72.00
2023-02-17T22:06:22.922Z,81.63
2023-02-17T22:08:50.886Z,73.30
2023-02-17T22:11:24.747Z,66.72
2023-02-17T22:14:00.242Z,67.82
2023-02-17T22:16:30.120Z,86.03
2023-02-17T22:18:57.926Z,108.30
2023-02-17T22:21:25.523Z,94.00
2023-02-17T22:23:52.850Z,72.75
2023-02-17T22:26:22.395Z,74.15
2023-02-17T22:28:49.632Z,97.07
2023-02-17T22:31:19.749Z,77.15
2023-02-17T22:33:47.621Z,85.38
2023-02-17T22:36:22.642Z,97.65
2023-02-17T22:38:51.312Z,107.57
2023-02-17T22:41:21.519Z,80.72
2023-02-17T22:43:49.901Z,100.53
2023-02-17T22:46:18.817Z,100.82
2023-02-17T22:48:48.563Z,107.50
2023-02-17T22:51:24.771Z,101.47
2023-02-17T22:53:52.083Z,115.95
2023-02-17T22:56:20.303Z,89.65
2023-02-17T22:58:47.764Z,79.07
2023-02-17T23:01:17.814Z,72.80
2023-02-17T23:03:45.613Z,70.53
2023-02-17T23:06:17.965Z,66.57
2023-02-17T23:08:46.406Z,71.55
2023-02-17T23:11:15.887Z,70.45
2023-02-17T23:13:43.910Z,54.85
2023-02-17T23:16:11.853Z,55.67
2023-02-17T23:18:39.305Z,53.22
2023-02-17T23:21:13.116Z,57.25
2023-02-17T23:23:40.461Z,38.83
2023-02-17T23:26:08.151Z,40.28
2023-02-17T23:28:35.716Z,37.15
2023-02-17T23:31:03.107Z,30.50
2023-02-17T23:33:30.298Z,33.22
2023-02-17T23:35:57.562Z,37.28
2023-02-17T23:38:24.855Z,32.88
2023-02-17T23:40:53.112Z,31.40
2023-02-17T23:43:21.260Z,37.55
2023-02-17T23:45:48.669Z,26.50
2023-02-17T23:48:16.566Z,32.08
2023-02-17T23:50:43.717Z,28.23
2023-02-17T23:53:10.922Z,33.65
2023-02-17T23:55:38.159Z,42.00
2023-02-17T23:58:05.411Z,40.22
